Portada
METAR-TAF:

METAR-TAF

Aeroports :

Miyazaki, Japó

latitud: 31-52N, longitud: 131-27E, altitud: 6 m

Observació

L'informe es va fer fa 8 hores i 47 minuts, a les 12:00 UTC
Vent 6 kt del Oest
Temperatura 16°C
Humitat 82%
Pressió 1022 hPa
Visibilitat 10 km o més
Escasses núvols a una alçada de 2500 ft
Núvols disperses a una alçada de 3500 ft

METAR: RJFM 261200Z 28006KT 9999 FEW025 SCT035 16/13 Q1022

Hora: 05:47 (20:47 UTC)

Pronòstic

L'informe es va fer fa 3 hores i 40 minuts, a les 17:07 UTC
Pronòstic vàlid del 26 a les 18 UTC al 28 a les 00 UTC
Vent 11 kt del Oest
Visibilitat 10 km o més
Escasses núvols a una alçada de 3000 ft
Cel ennuvolat a una alçada de 5000 ft
Temporalment
l' 27 a les 12 UTC al 27 a les 15 UTC
Vent 20 kt del Oest amb ràfegues de 30 kt

TAF: RJFM 261707Z 2618/2800 28011KT 9999 FEW030 BKN050 TEMPO 2712/2715 28020G30KT

Observacions i pronòstics meteorològics de més de 4000 aeroports (METAR i TAF).

Les estacions disponibles són els punts grocs i vermells al mapa.

Posi el ratolí al punt desitjat per veure el nom de l'estació.

Feu clic per veure les observacions i els pronòstics meteorològics.

Per canviar el mapa: feu clic els botons verds amb una creu de color negre per apropar; al botó verd amb un guió per allunyar la imatge; o en les fletxes verdes per a mapes adjacents.


METAR-TAF: